Flight Track Log - Related Links

Times and Time Zones

All times are in EDT time to prevent confusion due to time zone crossing. See the DAL6231 flight status page for this flight to view local times or setup timezone preferences in your user account.

Time Position Orientation Groundspeed Altitude Reporting Facility
EDT Latitude Longitude Course Direction KTS MPH feet Rate Location/Type
Thu 09:09:42 PM 40.7667 -73.8500 95° East 140 161 1,000  Level New York TRACON
Thu 09:11:38 PM 40.7608 -73.7664 95° East 153 176 5,100 2,297 Climbing Boston Center
Thu 09:12:37 PM 40.8322 -73.7183 27° Northeast 174 200 7,700 2,700 Climbing Boston Center
Thu 09:13:38 PM 40.9119 -73.6594 29° Northeast 244 281 10,500 2,300 Climbing Boston Center
Thu 09:14:37 PM 40.9900 -73.5783 38° Northeast 302 348 12,300 1,916 Climbing Boston Center
Thu 09:15:37 PM 41.0639 -73.4889 42° Northeast 386 444 14,300 2,459 Climbing Boston Center
Thu 09:16:39 PM 41.1400 -73.3661 51° Northeast 381 438 17,300 2,150 Climbing Boston Center
Thu 09:17:37 PM 41.2117 -73.2514 50° Northeast 386 444 18,600 1,322 Climbing Boston Center
Thu 09:18:37 PM 41.2894 -73.1281 50° Northeast 422 486 19,900 1,339 Climbing Boston Center
Thu 09:19:38 PM 41.3694 -72.9989 50° Northeast 437 503 21,300 1,377 Climbing Boston Center
Thu 09:20:39 PM 41.4492 -72.8639 52° Northeast 450 518 22,700 1,412 Climbing Boston Center
Thu 09:21:37 PM 41.5331 -72.7286 50° Northeast 462 532 24,100 1,350 Climbing Boston Center
Thu 09:22:39 PM 41.6125 -72.6233 45° Northeast 457 526 25,400 1,289 Climbing Boston Center
Thu 09:23:38 PM 41.7125 -72.5153 39° Northeast 450 518 26,700 1,513 Climbing Boston Center
Thu 09:24:38 PM 41.8272 -72.3928 38° Northeast 468 539 28,400 1,339 Climbing Boston Center
Thu 09:25:39 PM 41.9292 -72.2839 38° Northeast 468 539 29,400 992 Climbing Boston Center
Thu 09:26:39 PM 42.0333 -72.1717 39° Northeast 468 539 30,400 1,008 Climbing Boston Center
Thu 09:27:38 PM 42.1392 -72.0536 40° Northeast 473 544 31,400 1,008 Climbing Boston Center
Thu 09:28:38 PM 42.2450 -71.9381 39° Northeast 473 544 32,400 1,008 Climbing Boston Center
Thu 09:29:37 PM 42.3508 -71.8247 38° Northeast 473 544 33,400 992 Climbing Boston Center
Thu 09:30:39 PM 42.4564 -71.7083 39° Northeast 478 550 34,400 896 Climbing Boston Center
Thu 09:31:51 PM 42.5597 -71.5917 40° Northeast 478 550 35,400 1,000 Climbing Boston Center
Thu 09:32:51 PM 42.6900 -71.4572 37° Northeast 483 556 36,600 800 Climbing Boston Center
Thu 09:33:51 PM 42.7850 -71.3453 41° Northeast 472 543 37,000 203 Climbing Boston Center
Thu 09:34:49 PM 42.8881 -71.2331 39° Northeast 464 534 37,000  Level Boston Center
Thu 09:35:49 PM 42.9847 -71.1231 40° Northeast 459 528 37,000  Level Boston Center
Thu 09:36:50 PM 43.0833 -71.0072 41° Northeast 459 528 37,000  Level Boston Center
Thu 09:37:51 PM 43.1819 -70.8969 39° Northeast 459 528 37,000  Level Boston Center
Thu 09:38:51 PM 43.2700 -70.7947 40° Northeast 459 528 37,000  Level Boston Center
Thu 09:39:50 PM 43.3683 -70.6808 40° Northeast 459 528 37,000  Level Boston Center
Thu 09:40:51 PM 43.4561 -70.5494 47° Northeast 459 528 37,000  Level Boston Center
Thu 09:41:51 PM 43.5242 -70.3983 58° Northeast 459 528 37,000  Level Boston Center
Thu 09:42:51 PM 43.5944 -70.2469 57° Northeast 465 535 37,000  Level Boston Center
Thu 09:43:50 PM 43.6581 -70.0956 60° Northeast 452 520 37,000  Level Boston Center
Thu 09:44:51 PM 43.7317 -69.9317 58° Northeast 452 520 37,000  Level Boston Center
Thu 09:45:49 PM 43.7992 -69.7792 58° Northeast 457 526 37,000  Level Boston Center
Thu 09:47:01 PM 43.8800 -69.5914 59° Northeast 457 526 37,000  Level Boston Center
Thu 09:48:01 PM 43.9472 -69.4408 58° Northeast 462 532 37,000  Level Boston Center
Thu 09:49:01 PM 44.0158 -69.2817 59° Northeast 462 532 37,000  Level Boston Center
Thu 09:50:02 PM 44.0825 -69.1306 58° Northeast 462 532 37,000  Level Boston Center
Thu 09:51:01 PM 44.1486 -68.9764 59° Northeast 462 532 37,000  Level Boston Center
Thu 09:52:00 PM 44.2147 -68.8219 59° Northeast 462 532 37,000  Level Boston Center
Thu 09:53:01 PM 44.2806 -68.6642 60° Northeast 462 532 37,000  Level Boston Center
Thu 09:54:01 PM 44.3483 -68.5058 59° Northeast 462 532 37,000  Level Boston Center
Thu 09:55:01 PM 44.4178 -68.3442 59° Northeast 467 537 37,000  Level Boston Center
Thu 09:56:03 PM 44.4828 -68.1856 60° Northeast 472 543 37,000  Level Boston Center
Thu 09:57:00 PM 44.5478 -68.0264 60° Northeast 472 543 37,000  Level Boston Center
Thu 09:58:02 PM 44.6144 -67.8694 59° Northeast 467 537 37,000  Level Boston Center
Thu 09:59:02 PM 44.6811 -67.7125 59° Northeast 467 537 37,000  Level Boston Center
Thu 10:00:03 PM 44.7475 -67.5519 60° Northeast 462 532 37,000  Level Boston Center
Thu 10:01:02 PM 44.8058 -67.4067 60° Northeast 462 532 37,000  Level Boston Center
Thu 10:01:27 PM 44.8167 -67.3167 80° East 470 541 37,000  Level Moncton Center
Thu 10:02:27 PM 44.8667 -67.1333 69° East 470 541 37,000  Level Moncton Center
Thu 10:03:27 PM 44.9000 -66.9667 74° East 490 564 37,000  Level Moncton Center
Thu 10:04:27 PM 44.9000 -66.7500 90° East 500 575 37,000  Level Moncton Center
Thu 10:05:27 PM 44.9000 -66.5667 90° East 500 575 37,000  Level Moncton Center
Thu 10:06:27 PM 44.9000 -66.3500 90° East 500 575 37,000 -600 Level Moncton Center
Thu 10:07:27 PM 44.9167 -66.1667 83° East 500 575 35,800 -1,450 Descending Moncton Center
Thu 10:08:27 PM 44.9167 -65.9833 90° East 490 564 34,100 -1,800 Descending Moncton Center
Thu 10:09:27 PM 44.9167 -65.7833 90° East 490 564 32,200 -2,000 Descending Moncton Center
Thu 10:10:27 PM 44.9167 -65.5833 90° East 510 587 30,100 -2,400 Descending Moncton Center
Thu 10:11:27 PM 44.9167 -65.3667 90° East 510 587 27,400 -2,550 Descending Moncton Center
Thu 10:12:27 PM 44.9167 -65.1833 90° East 510 587 25,000 -2,450 Descending Moncton Center
Thu 10:13:27 PM 44.9167 -64.9833 90° East 500 575 22,500 -2,550 Descending Moncton Center
Thu 10:14:27 PM 44.9167 -64.8000 90° East 470 541 19,900 -2,300 Descending Moncton Center
Thu 10:15:27 PM 44.9167 -64.6333 90° East 460 529 17,900 -2,200 Descending Moncton Center
Thu 10:16:27 PM 44.9167 -64.4667 90° East 430 495 15,500 -2,150 Descending Moncton Center
Thu 10:17:27 PM 44.9167 -64.3000 90° East 400 460 13,600 -1,950 Descending Moncton Center
Thu 10:18:27 PM 44.9167 -64.1667 90° East 350 403 11,600 -2,050 Descending Moncton Center
Thu 10:19:27 PM 44.9167 -64.0500 90° East 330 380 9,500 -1,850 Descending Moncton Center
Thu 10:20:27 PM 44.9333 -63.9167 80° East 310 357 7,900 -1,700 Descending Moncton Center
Thu 10:21:27 PM 44.9667 -63.8000 68° East 300 345 6,100 -1,650 Descending Moncton Center
Thu 10:22:27 PM 45.0000 -63.7167 60° Northeast 290 334 4,600 -1,400 Descending Moncton Center
Thu 10:23:27 PM 45.0167 -63.6167 77° East 270 311 3,300 -1,100 Descending Moncton Center
Thu 10:24:27 PM 45.0333 -63.5167 77° East 240 276 2,400 -650 Descending Moncton Center
Thu 10:25:27 PM 45.0167 -63.4500 109° East 190 219 2,000 -200 Descending Moncton Center
Thu 10:26:27 PM 44.9667 -63.4333 167° South 150 173 2,000  Level Moncton Center
Thu 10:27:27 PM 44.9333 -63.4333 180° South 120 138 2,000 -250 Level Moncton Center
Thu 10:28:27 PM 44.9167 -63.4500 215° Southwest 110 127 1,500 -500 Descending Moncton Center
Thu 10:29:27 PM 44.8833 -63.4833 215° Southwest 110 127 1,000 -500 Descending Moncton Center

Login

Don't have an account? Register now (free) for customized features, flight alerts, and more!